Townsville, Queensland

2:57 AM EST on August 23, 2014 (GMT +1000)
Townsville Airport (Garbutt) | Change Station
CLOSE
Current Station
Personal Weather Station
Location: Garbutt, QUEENSLAND
Elevation: 20 ft
Nearby Weather Stations

Elev 20 ft 19.26 °S, 146.77 °E | Updated 5 minutes ago

Clear
Clear
63.9 °F
Feels Like 63.9 °F
N
4.3
Wind Variable Wind from SSE
Gusts 5.6 mph

Today
High -- | Low -- °F
--% Chance of Precip.
Yesterday
High -- | Low -- °F
Precip. -- in
6:28 AM 6:03 PM
Waning Crescent, 7% visible
Pressure 30.06 in
Visibility 6.2 miles
Clouds
Dew Point 60 °F
Humidity 88%
Rainfall 0.00 in
Snow Depth Not available.
UV Not available.
Pollen Not available.
Air Quality Not available.
Flu Activity Not available.
METAR YBTL 221630Z AUTO 17005KT 9999 // NCD 18/16 Q1018

More Conditions Fewer Conditions

Pressure 30.06 in
Visibility 6.2 miles
Clouds
Dew Point 60 °F
Humidity 88%
Rainfall 0.00 in
Snow Depth Not available.
UV Not available.
Pollen Not available.
Air Quality Not available.
Flu Activity Not available.
METAR YBTL 221630Z AUTO 17005KT 9999 // NCD 18/16 Q1018

More Conditions Fewer Conditions

10-Day Weather Forecast

Almanac

Astronomy

Aug. 23, 2014 Rise Set
Actual Time 6:28 AM EST 6:03 PM EST
Civil Twilight 6:06 AM EST 6:25 PM EST
Nautical Twilight 5:40 AM EST 6:51 PM EST
Astronomical Twilight 5:14 AM EST 7:16 PM EST
Moon 4:31 AM EST (8/23) 4:09 PM EST (8/23)
Length of Visible Light 12h 19m
Length of Day
11h 34m
Tomorrow will be 0m 59s longer.
Waning Crescent, 7% of the Moon is Illuminated
Aug 22
Waning Crescent
Aug 25
New
Sep 2
First Quarter
Sep 8
Full
Sep 15
Last Quarter

Yesterday's Extremes

Country Highs Country Lows

Community

WunderPhotos

Upload Photos

1,746,197 photos uploaded!

Nearby

Snow Depth

Not available.

Earthquake Activity

City Distance Mag. Time & Date
No recent earthquake activity has been reported nearby.
Minimum magnitude displayed is 2.5.

Coastal Water Temperatures

Place Temperature
No Stations Reporting

Nearby Weather Stations